Matej Masopust

Chief Scout - Viktoria Plzen
20 Feb 2028
Sunday
Process

Personality

Adaptability (4) Ambition (3) Controversy (16) Loyalty (3) Pressure (6) Professionalism (6) Sportsmanship (6) Temperament (17)

Profile

Coaching Style Democratic
License Continental C
Determination 6
Man Management 6
Motivating 13
Discipline 9
Job Satisfaction
100%
Fatigue
0%
Role Chief Scout
Wage 74.7K p/w
Contract 14.03.2029

Performance

Behaviour Good
Training Effectiveness
43%
Player Development
65%
Injury Prevention
60%
Tactical Implementation
30%

Recent Events

Attended a recruitment meeting now
Recommended a transfer target now
Recommended a transfer target now
Recommended a transfer target now
Recommended a transfer target now
Recommended a transfer target now
Attended a recruitment meeting 7d ago
Recommended a transfer target 7d ago

Currently Monitoring

273
Player Club Status Ability Confidence Watched Last Observed Latest Vote
Alexis Alégué Zbrojovka Brno Report Ready 124 / 120 83% 1 31.01.2028 Approve
Facundo Melivilo Dukla Prague Lost 107 / 97 83% 1 10.01.2028 Approve
Leonardo Campana New England Revolution Lost 131 / 143 40% 1 10.01.2028 -
Josh King Chelsea Active 144 / 134 40% 4 03.01.2028 -
Archie Gray Derby County Active 148 / 161 40% 7 03.01.2028 -
Mauro Carrizo Atlético Tucumán Active 97 / 102 40% 3 03.01.2028 -
Dennis Owusu Banik Ostrava Active 114 / 111 83% 1 01.01.2028 Approve
Thierno Barry Norwich City Active 143 / 143 40% 1 31.12.2027 -
Assane Diao Lazio Active 146 / 149 40% 1 31.12.2027 -
Mikkel Hope Haugesund Active 97 / 104 40% 3 17.12.2027 -
Narcis Ilaş CFR Cluj Active 111 / 113 40% 3 17.12.2027 -
Ronan Kpakio Cardiff City Active 122 / 118 40% 2 17.12.2027 -
Jofre Torrents Ajax Active 128 / 133 40% 5 16.12.2027 -
Noahkai Banks Hamburger SV Active 135 / 130 40% 1 16.12.2027 -
Joe Johnson Barnet Active 110 / 116 40% 1 16.12.2027 -
Luis Otávio Colorado Rapids Active 116 / 115 40% 5 15.12.2027 -
Andrija Bulatović RC Lens Active 128 / 138 40% 1 15.12.2027 -
Saman Rezaeian Gostaresh Foulad Active 103 / 108 40% 1 15.12.2027 -
Ayden Heaven Luton Town Active 149 / 152 40% 4 14.12.2027 -
Nazareno Roselli Defensa y Justicia Active 111 / 122 40% 4 12.12.2027 -
Tiago Parente Benfica Active 105 / 97 40% 3 12.12.2027 -
Esquerdinha Shrewsbury Town Active 114 / 124 40% 2 12.12.2027 -
Luka Vušković Manchester United Active 147 / 170 40% 2 11.12.2027 -
Ignacio Fernández Boston River Active 95 / 111 40% 3 10.12.2027 -
Olaniyi Saheed Kwara United Active 96 / 110 40% 1 10.12.2027 -
Alejandro Almaraz Nueva Chicago Active 103 / 111 40% 3 09.12.2027 -
Gift Udoh Ikorodu City Active 89 / 95 40% 4 09.12.2027 -
Agustín Obregón River Plate Active 118 / 125 40% 1 09.12.2027 -
Caleb Yirenkyi Coventry City Active 139 / 155 40% 4 08.12.2027 -
Samuel Posada Leones Active 91 / 91 40% 1 08.12.2027 -
Tygo Land PSV Active 123 / 115 40% 1 06.12.2027 -
Hosea Michael Remo Stars Active 85 / 85 40% 3 24.11.2027 -
Bahia Criciuma Active 106 / 124 40% 4 24.11.2027 -
Dominik Chong Qui Atlanta United FC Active 92 / 112 40% 2 22.11.2027 -
Marvelous Freedom Ikorodu City Active 94 / 95 40% 2 21.11.2027 -
Josh Nichols Tranmere Rovers Active 127 / 119 40% 3 21.11.2027 -
Harrison Armstrong Everton Active 138 / 145 40% 1 20.11.2027 -
Daniel Banjaqui Benfica Active 121 / 141 40% 1 20.11.2027 -
Matteo Pérez Vinlöf Dinamo Zagreb Active 127 / 127 40% 3 17.11.2027 -
Stanley Wilson AIK Active 90 / 102 40% 2 16.11.2027 -
Felipe Obradovich Ferro Carril Oeste Active 110 / 109 40% 1 16.11.2027 -
Jovan Milosavljević Kalmar FF Active 97 / 95 40% 3 13.11.2027 -
Celías Ingenthron Vélez Active 120 / 126 40% 2 11.11.2027 -
Adrian Gill Atlanta United FC Active 87 / 109 40% 2 09.11.2027 -
Olivier Mambwa Young Boys Active 104 / 131 40% 1 09.11.2027 -
Godwin Oham Warri Wolves Active 85 / 90 40% 2 08.11.2027 -
Dmitry Pestryakov Dinamo Moscow Active 121 / 120 40% 1 08.11.2027 -
Juan Giménez Celta Active 122 / 126 40% 2 05.11.2027 -
Hervin Goyes Deportivo Pasto Active 101 / 127 40% 2 05.11.2027 -
Nika Kvaratskhelia Tskhinvali Active 96 / 116 40% 1 31.10.2027 -
Mads Bomholt Stabaek Active 116 / 105 40% 2 27.10.2027 -
Harbor Miller LA Galaxy Active 104 / 104 40% 1 24.10.2027 -
Matías Gómez Granada Active 114 / 127 40% 1 24.10.2027 -
Tyson Pearce St. Louis CITY SC Active 92 / 111 40% 1 23.10.2027 -
Trey Nyoni Rotherham United Active 135 / 159 40% 1 21.10.2027 -
José Correa Deportivo Tachira Active 91 / 103 40% 2 14.10.2027 -
Jens Hjertø-Dahl Hull City Active 133 / 126 40% 1 11.10.2027 -
Julián Bazán Philadelphia Union Active 116 / 104 40% 1 09.10.2027 -
Brandon Powell Wigan Athletic Active 120 / 117 40% 1 09.10.2027 -
Muminhon Bahodirxonov Neftchi Active 89 / 109 40% 1 06.10.2027 -
Somtochuwku Ezenabo Kwara United Active 89 / 96 40% 1 05.10.2027 -
Theodor Lundbergh Malmo FF Active 88 / 90 40% 1 05.10.2027 -
Yiandro Raap Ilves Active 90 / 109 40% 2 04.10.2027 -
Esteban de Lima Tacuarembo Active 98 / 109 40% 1 04.10.2027 -
Juan Morán Godoy Cruz Active 103 / 128 40% 1 30.08.2027 -
Jonathan Klinsmann Cesena Active 134 / 128 40% 1 16.08.2027 -
Maduka Okoye Udinese Active 139 / 137 40% 1 16.08.2027 -
Murphy Cooper Plymouth Argyle Active 123 / 114 40% 1 04.08.2027 -
Arijanet Murić Sassuolo Active 148 / 156 40% 2 27.07.2027 -
Mads Hermansen West Ham United Active 150 / 154 40% 1 27.07.2027 -
Elijah Adebayo Luton Town Active 128 / 117 40% 5 21.06.2027 -
Tom Cannon Sheffield United Active 134 / 147 40% 4 21.06.2027 -
Cristian Shpendi Cesena Active 134 / 117 40% 1 14.06.2027 -
Pedro de la Vega FC Dallas Active 133 / 134 66% 1 01.06.2027 Approve
Dominik Pleštil Bohemians 1905 Active 108 / 114 79% 1 01.06.2027 Approve
Yousef Salech Cardiff City Active 126 / 132 40% 7 31.05.2027 -
Patson Daka Leicester City Active 123 / 143 40% 5 30.05.2027 -
Lorent Tolaj Plymouth Argyle Active 115 / 134 40% 6 30.05.2027 -
Tommy Conway Middlesbrough Active 134 / 145 40% 3 30.05.2027 -
Lewis Morgan SuperSport United Active 135 / 111 40% 8 29.05.2027 -
Moussa Dembélé CR Belouizdad Active 135 / 150 40% 6 29.05.2027 -
Zian Flemming Ipswich Town Active 127 / 145 40% 6 28.05.2027 -
Joe Gelhardt Hull City Lost 135 / 149 40% 2 28.05.2027 -
Dennis Cirkin Queens Park Rangers Active 133 / 125 40% 1 28.05.2027 -
Bertrand Traoré Sunderland Active 133 / 128 40% 8 26.05.2027 -
Dom Ballard Leyton Orient Active 117 / 135 40% 3 26.05.2027 -
Themba Ngcobo SuperSport United Active 124 / 122 40% 5 25.05.2027 -
Santiago Pierotti Lecce Active 126 / 147 40% 2 25.05.2027 -
Carlton Morris Derby County Active 128 / 122 40% 2 24.05.2027 -
Daniel Vernattus Metalist Active 94 / 99 40% 1 24.05.2027 -
Leonardo Mendicino Bari Active 106 / 111 40% 1 24.05.2027 -
Will Lankshear Middlesbrough Active 132 / 132 40% 3 23.05.2027 -
Hwang Hee-Chan Wolverhampton Active 141 / 140 40% 6 18.05.2027 -
Richard Koné Queens Park Rangers Active 126 / 131 40% 2 16.05.2027 -
Kyle Wootton Stockport County Active 127 / 121 40% 7 16.05.2027 -
Samuele Angori Pisa Active 127 / 118 40% 3 15.05.2027 -
Andrea Carboni Monza Active 127 / 142 40% 2 15.05.2027 -
Aaron Collins Milton Keynes Dons Active 112 / 117 40% 7 13.05.2027 -
Sam Bell Bristol City Active 121 / 120 40% 2 13.05.2027 -
Ilyas Ansah Hull City Active 133 / 146 40% 6 12.05.2027 -
Karlan Grant West Bromwich Albion Active 128 / 120 40% 1 12.05.2027 -
Armando Broja Burnley Active 136 / 128 40% 1 12.05.2027 -
Jan Bürger Gillingham Active 109 / 130 40% 1 12.05.2027 -
Luis Vázquez Birmingham Active 128 / 133 40% 3 10.05.2027 -
Welington Southampton Active 140 / 114 40% 3 08.05.2027 -
Mathias Jørgensen Blackburn Rovers Active 118 / 111 40% 3 08.05.2027 -
Nicolas Madsen Queens Park Rangers Active 135 / 118 40% 5 08.05.2027 -
Simone Mazzocchi Cosenza Active 121 / 103 40% 1 06.05.2027 -
Tariq Lamptey Queens Park Rangers Active 132 / 140 40% 2 04.05.2027 -
Aune Heggebø West Bromwich Albion Active 130 / 127 40% 7 04.05.2027 -
Keinan Davis Udinese Active 137 / 124 40% 1 04.05.2027 -
Ethan Galbraith Swansea City Active 137 / 120 40% 1 04.05.2027 -
Kristoffer Lund Birmingham Active 125 / 116 40% 1 04.05.2027 -
Shea Charles Southampton Active 140 / 153 40% 2 02.05.2027 -
Nadir Zortea Bologna Active 142 / 149 40% 1 01.05.2027 -
Ronnie Edwards Queens Park Rangers Active 129 / 146 40% 1 01.05.2027 -
Christian Krasnodar Active 136 / 136 40% 6 29.04.2027 -
Callum Doyle Wrexham Active 131 / 138 40% 3 28.04.2027 -
Tommaso Pobega Bologna Active 133 / 148 40% 2 28.04.2027 -
Callum O'Hare Sheffield United Active 127 / 143 40% 2 24.04.2027 -
Tyreece Campbell Charlton Athletic Active 125 / 138 40% 4 24.04.2027 -
Yoane Wissa Newcastle United Active 137 / 142 40% 3 22.04.2027 -
Ross Stewart Southampton Active 120 / 134 40% 1 22.04.2027 -
Adrián Bernabé Parma Active 145 / 130 40% 2 21.04.2027 -
Alfie Doughty Millwall Active 122 / 141 40% 1 21.04.2027 -
Adam Randell Bristol City Active 128 / 141 40% 2 19.04.2027 -
Tyrese Campbell Sheffield United Active 135 / 115 40% 5 17.04.2027 -
Emmanuel Boateng Hapoel Tel Aviv Active 117 / 127 40% 2 16.04.2027 -
Ebrima Singhateh Jablonec Active 119 / 124 40% 4 15.04.2027 Monitor
Oli McBurnie Hull City Active 135 / 124 40% 4 15.04.2027 -
Rashid Rashid Sparta Prague Active 139 / 133 40% 7 13.04.2027 -
Giuseppe Di Serio Spezia Active 119 / 115 40% 1 13.04.2027 -
Lassina Traoré Shakhtar Active 123 / 120 40% 3 08.04.2027 -
Álex Centelles Levski Active 127 / 131 40% 2 07.04.2027 -
Ilario Monterisi Frosinone Active 129 / 136 40% 1 07.04.2027 -
Ivan Sergeev Dinamo Moscow Active 131 / 135 40% 2 03.04.2027 -
John Okoye Ebuka Ittihad Active 113 / 133 40% 2 03.04.2027 -
Percy Jali Free State Stars Active 98 / 119 40% 1 01.04.2027 -
Rhian Brewster Oxford United Active 122 / 112 40% 4 27.03.2027 -
Ruben van Bommel Ferencvaros Active 137 / 123 40% 7 17.03.2027 -
Cameron Archer Southampton Active 127 / 144 40% 3 16.03.2027 -
Toby Collyer West Bromwich Albion Active 128 / 118 40% 2 15.03.2027 -
Brayan León Mamelodi Sundowns Active 126 / 117 40% 1 15.03.2027 -
Habib Diarra Sunderland Active 139 / 126 40% 1 15.03.2027 -
Bienvenue Kanakimana Zbrojovka Brno Active 123 / 123 40% 2 12.03.2027 Needs More Info
Volodymyr Brazhko Dynamo Kyiv Active 134 / 133 40% 1 09.03.2027 -
Florentino Luís Ipswich Town Active 140 / 140 40% 1 09.03.2027 -
Will Smallbone Southampton Active 127 / 140 40% 1 08.03.2027 -
Václav Jurečka Banik Ostrava Active 115 / 121 40% 1 05.03.2027 -
Cédric Don Maccabi Haifa Active 117 / 106 40% 2 03.03.2027 -
Pedro Henrique Shakhtar Active 129 / 131 40% 1 03.03.2027 -
Prosper Obah Shakhtar Active 126 / 138 40% 1 25.02.2027 -
Tamerlan Musaev CSKA Moscow Active 118 / 123 40% 1 24.02.2027 -
Oumar Solet Udinese Active 144 / 152 40% 1 24.02.2027 -
Anel Ahmedhodžić Burnley Active 135 / 147 40% 1 24.02.2027 -
Filippo Ranocchia Palermo Active 137 / 135 40% 1 24.02.2027 -
Luke McNally Bristol City Active 123 / 140 40% 1 21.02.2027 -
Aidan Morris Middlesbrough Active 127 / 115 40% 1 21.02.2027 -
Oliver Skipp Leicester City Active 132 / 117 40% 1 16.02.2027 -
Egas Cacintura Spartak Moscow Active 124 / 119 40% 1 14.02.2027 -
Oleksii Hutsuliak Polissia Active 125 / 124 40% 2 13.02.2027 -
Erik Prekop Gornik Zabrze Active 133 / 123 40% 1 12.02.2027 -
Morgan Whittaker Middlesbrough Active 138 / 133 40% 1 06.02.2027 -
Che Adams Torino Active 138 / 133 40% 1 06.02.2027 -
Mojmír Chytil NK Maribor Active 139 / 130 40% 1 05.02.2027 -
Arthur Gomes Dinamo Moscow Active 125 / 112 40% 1 05.02.2027 -
Caspar Jander Southampton Active 128 / 125 40% 1 03.02.2027 -
Zeki Amdouni Burnley Active 126 / 124 40% 1 25.01.2027 -
Othmane Maamma Watford Active 129 / 143 40% 1 23.01.2027 -
Finn Azaz Southampton Active 135 / 130 40% 1 19.01.2027 -
Jack Rudoni Coventry City Active 132 / 132 40% 1 19.01.2027 -
Jason Knight Bristol City Active 134 / 135 40% 2 18.01.2027 -
Facundo Torres LOSC Lille Lost 134 / 134 67% 1 18.01.2027 Approve
Ali Ahmed Norwich City Active 127 / 131 40% 1 18.01.2027 -
Stanislav Agkatsev Sunderland Negotiating 132 / 133 66% 1 01.01.2027 Approve
Kwame Poku Queens Park Rangers Active 132 / 114 40% 1 30.12.2026 -
Sayfallah Ltaief Cracovia Active 125 / 118 40% 4 28.12.2026 -
Milan van Ewijk Mansfield Town Active 129 / 115 40% 2 25.12.2026 -
Max Bird Birmingham Active 123 / 111 40% 1 25.12.2026 -
Mamadou Sangaré Brentford Active 130 / 137 40% 1 25.12.2026 -
Michal Kohút Banik Ostrava Active 125 / 138 40% 8 23.12.2026 -
Ki-Jana Hoever Sparta Prague Active 125 / 115 40% 2 21.12.2026 -
Esequiel Barco Spartak Moscow Active 141 / 147 40% 2 21.12.2026 -
Leo Østigård Genoa Active 148 / 128 40% 1 19.12.2026 -
Kian Fitz-Jim Torino Active 126 / 142 40% 1 18.12.2026 -
Ardon Jashari AC Milan Active 139 / 127 40% 1 18.12.2026 -
Jiří Boula Banik Ostrava Active 129 / 123 40% 2 16.12.2026 -
Mandla Erasmus SuperSport United Active 128 / 114 40% 5 13.12.2026 -
Oswin Appollis Orlando Pirates Active 120 / 110 40% 4 13.12.2026 -
Alexandr Siljanov Lokomotiv Moscow Active 124 / 139 40% 3 12.12.2026 -
Patrik Wålemark Lech Active 123 / 133 40% 1 12.12.2026 -
Torbjørn Heggem Bologna Active 129 / 124 40% 1 12.12.2026 -
Michal Sadílek Slavia Prague Active 135 / 117 40% 5 11.12.2026 -
Giorgio Scalvini Atalanta Active 144 / 152 40% 1 11.12.2026 -
Daniele Ghilardi AS Roma Active 138 / 141 40% 1 07.12.2026 -
Christ Inao Oulaï Fiorentina Active 138 / 144 40% 1 07.12.2026 -
David Zima Slavia Prague Active 128 / 141 40% 1 06.12.2026 -
Marlon Gomes Shakhtar Active 137 / 129 40% 4 05.12.2026 -
Joaquín Gho Argentinos Juniors Active 120 / 123 40% 2 05.12.2026 -
Marko Soldo Sigma Olomouc Active 115 / 115 40% 2 05.12.2026 -
Juan David Cabal Juventus Active 140 / 148 40% 2 03.12.2026 -
Matvey Kislyak CSKA Moscow Active 130 / 146 40% 4 03.12.2026 -
Leandro Lozano Boca Juniors Active 134 / 112 40% 1 02.12.2026 -
Ryan Flamingo PSV Active 141 / 146 40% 1 01.12.2026 -
Aarón Molinas Defensa y Justicia Active 122 / 138 40% 1 28.11.2026 -
Alexandr Chernikov Krasnodar Active 136 / 128 40% 1 28.11.2026 -
Reda Khadra Qarabag Active 136 / 120 40% 2 26.11.2026 -
Tomás O'Connor Gimnasia y Esgrima Active 115 / 131 40% 1 26.11.2026 -
Florin Maxim Astra Active 119 / 107 40% 1 22.11.2026 -
Matías Fernández Independiente Rivadavia Active 124 / 111 40% 1 22.11.2026 -
Ramiro Ruiz Rodríguez Atlético Tucumán Active 115 / 117 40% 2 21.11.2026 -
Bénie Traoré New York City Active 124 / 132 40% 2 21.11.2026 -
Bryan Ramírez FC Cincinnati Active 120 / 123 40% 1 20.11.2026 -
Williams Manyama SuperSport United Active 106 / 97 40% 3 18.11.2026 -
Manuel Mónaco Sarmiento Active 109 / 131 40% 1 18.11.2026 -
Romano Schmid Frosinone Active 137 / 131 40% 1 18.11.2026 -
Jack Currie Oxford United Active 120 / 137 40% 2 17.11.2026 -
Alan Lescano Argentinos Juniors Active 132 / 138 40% 1 15.11.2026 -
Tshepang Moremi Orlando Pirates Active 117 / 114 40% 1 15.11.2026 -
Franco Zapiola Platense Active 128 / 130 40% 1 13.11.2026 -
Bongani Modiba Black Aces Active 128 / 131 40% 2 12.11.2026 -
Magnus Kofod Andersen Sparta Prague Active 126 / 117 40% 2 10.11.2026 -
Tiago Palacios Estudiantes Active 128 / 111 40% 1 10.11.2026 -
Griffin Yow New England Revolution Active 129 / 112 40% 4 09.11.2026 -
Andy Irving Sparta Prague Active 129 / 128 40% 2 08.11.2026 -
Suleiman Camara Slovan Bratislava Active 116 / 133 40% 1 05.11.2026 -
Facundo Mura Inter Miami CF Active 136 / 113 40% 1 05.11.2026 -
David Pech Mlada Boleslav Active 122 / 115 40% 1 03.11.2026 -
Rubens Dinamo Moscow Active 131 / 127 40% 1 02.11.2026 -
Theo Corbeanu Toronto FC Active 132 / 125 40% 2 31.10.2026 -
Djordje Mihailović Toronto FC Active 136 / 130 40% 4 29.10.2026 -
Tobias Gulliksen Rapid Wien Active 131 / 107 40% 1 29.10.2026 -
Thalente Mbatha Orlando Pirates Active 107 / 134 40% 1 25.10.2026 -
Iván Angulo Orlando City Active 135 / 132 40% 1 23.10.2026 -
Jakub Kadák Dukla Prague Active 121 / 115 40% 1 22.10.2026 -
Elias Achouri San Diego Football Club Active 138 / 116 40% 1 22.10.2026 -
Telasco Segovia Inter Miami CF Active 128 / 149 40% 2 21.10.2026 -
Tomás Chancalay Minnesota United FC Active 120 / 139 40% 3 18.10.2026 -
Michele Šego Hajduk Split Active 126 / 123 40% 1 18.10.2026 -
Petar Stanić Ludogorets Active 130 / 130 40% 1 15.10.2026 -
Tornike Morchiladze HNK Rijeka Active 119 / 124 40% 1 15.10.2026 -
Antonio Galeano Remo Stars Active 121 / 128 40% 2 14.10.2026 -
David Da Costa Portland Timbers Active 124 / 129 40% 1 14.10.2026 -
Conrad Wallem Austria Wien Active 123 / 109 40% 1 12.10.2026 -
Agustín Anello Philadelphia Union Active 131 / 106 40% 1 11.10.2026 -
Kaan Kairinen AEK Active 126 / 130 40% 1 07.10.2026 -
Alonso Martínez New York City Active 115 / 120 40% 1 05.10.2026 -
Alexander Aravena Portland Timbers Active 121 / 125 40% 1 04.10.2026 -
Gabriel Pirani San Diego Football Club Active 131 / 139 40% 1 04.10.2026 -
Ole-Didrik Blomberg Bodo/Glimt Active 123 / 135 40% 1 04.10.2026 -
Lukas Engel Real Salt Lake Active 121 / 110 40% 1 30.09.2026 -
Marquinhos Spartak Moscow Active 128 / 123 40% 1 30.09.2026 -
Brandon Vázquez Austin FC Active 111 / 100 40% 2 26.09.2026 -
Rui Modesto Vancouver Whitecaps Active 121 / 121 40% 1 26.09.2026 -
John Mercado Sparta Prague Active 128 / 134 40% 2 25.09.2026 -
Mayckel Lahdo Malmo FF Active 130 / 129 40% 1 25.09.2026 -
Pablo Ruiz Real Salt Lake Active 126 / 118 40% 1 23.09.2026 -
Antony Portland Timbers Active 122 / 126 40% 1 21.09.2026 -
Quinn Sullivan Philadelphia Union Active 131 / 129 40% 1 21.09.2026 -
Armindo Sieb Los Angeles Football Club Active 113 / 112 40% 1 19.09.2026 -
Jahkeele Marshall-Rutty New York Red Bulls Active 108 / 140 40% 1 19.09.2026 -
Marco Pašalić Orlando City Active 132 / 120 40% 1 18.09.2026 -
Hamzat Ojediran Colorado Rapids Active 116 / 107 40% 1 18.09.2026 -
Sead Hakšabanović Malmo FF Active 109 / 104 40% 1 17.09.2026 -
Sebastian Nebyla Jablonec Active 108 / 103 40% 1 16.09.2026 -
Andrés Herrera Columbus Crew Active 122 / 132 40% 1 15.09.2026 -
Santiago Rodríguez Columbus Crew Active 127 / 136 40% 1 11.09.2026 -
Kristoffer Velde Portland Timbers Active 106 / 127 40% 1 10.09.2026 -
Mariano Bracamonte Deportivo Riestra Active 120 / 135 40% 1 08.09.2026 -
Kévin Denkey FC Cincinnati Active 128 / 145 40% 1 31.08.2026 -
Joel Ezra Enyimba Active 85 / 98 40% 1 25.08.2026 -
Tomáš Vlček Slavia Prague Active 119 / 119 72% 1 17.08.2026 Approve
Philippe Ndinga Philadelphia Union Active 116 / 115 40% 1 17.08.2026 -